Time;durP1;ratioP1;P1;durP2;ratioP2;P2;SDS_P1;SDS_P2;PMS_P1;PMS_P2;Temp;Humidity;BMP_temperature;BMP_pressure;BME280_temperature;BME280_humidity;BME280_pressure;Samples;Min_cycle;Max_cycle;Signal;HPM_P1;HPM_P2
2023/12/14 00:02:10;;;;;;;3.90;2.20;;;;;;;6.22;100.00;98996.38;5094938;28;20550;-76
2023/12/14 00:04:37;;;;;;;2.57;2.37;;;;;;;6.37;100.00;99011.19;5092467;28;20658;-77
2023/12/14 00:07:05;;;;;;;2.60;2.50;;;;;;;6.46;100.00;99012.16;5092647;28;20596;-77
2023/12/14 00:09:32;;;;;;;1.30;1.30;;;;;;;6.41;100.00;99013.84;5056642;28;20559;-77
2023/12/14 00:11:58;;;;;;;1.07;1.07;;;;;;;6.52;100.00;99020.84;5092008;28;20601;-76
2023/12/14 00:14:25;;;;;;;1.30;1.30;;;;;;;6.58;100.00;99018.34;5063000;28;20669;-76
2023/12/14 00:16:52;;;;;;;1.73;1.73;;;;;;;6.59;100.00;99014.94;5057253;28;20713;-77
2023/12/14 00:19:19;;;;;;;1.47;1.37;;;;;;;6.58;100.00;99010.59;5093041;28;20255;-77
2023/12/14 00:21:46;;;;;;;1.10;1.10;;;;;;;6.60;100.00;99014.09;5093089;28;20199;-77
2023/12/14 00:24:14;;;;;;;2.07;1.97;;;;;;;6.65;100.00;99009.84;5092876;28;20198;-77
2023/12/14 00:26:41;;;;;;;2.13;1.60;;;;;;;6.62;100.00;99005.53;5091867;28;20210;-77
2023/12/14 00:29:07;;;;;;;2.30;2.10;;;;;;;6.62;100.00;99007.22;5092060;28;20217;-78
2023/12/14 00:31:34;;;;;;;1.47;1.47;;;;;;;6.55;100.00;99006.28;5091607;28;20243;-77
2023/12/14 00:34:02;;;;;;;1.93;1.83;;;;;;;6.58;100.00;99010.59;5091567;28;20226;-77
2023/12/14 00:36:29;;;;;;;1.43;1.43;;;;;;;6.50;100.00;99007.94;5091496;28;20228;-76
2023/12/14 00:38:56;;;;;;;1.53;1.53;;;;;;;6.62;100.00;99020.13;5091984;28;20262;-76
2023/12/14 00:41:25;;;;;;;1.73;1.73;;;;;;;6.61;100.00;99018.38;5093635;28;20654;-77
2023/12/14 00:43:51;;;;;;;2.00;1.90;;;;;;;6.59;100.00;99027.81;5091655;28;20194;-77
2023/12/14 00:46:18;;;;;;;1.80;1.60;;;;;;;6.64;100.00;99029.56;5091697;28;20194;-77
2023/12/14 00:48:45;;;;;;;0.80;0.80;;;;;;;6.63;100.00;99035.59;5072841;28;20201;-77
2023/12/14 00:51:12;;;;;;;0.83;0.83;;;;;;;6.57;100.00;99037.19;5069906;28;20634;-77
2023/12/14 00:53:38;;;;;;;1.63;1.53;;;;;;;6.41;100.00;99041.28;5091600;28;20225;-78
2023/12/14 00:56:08;;;;;;;1.03;1.03;;;;;;;6.42;100.00;99040.44;5070707;28;20195;-77
2023/12/14 00:58:36;;;;;;;1.20;1.20;;;;;;;5.98;100.00;98931.72;5040602;28;20236;-77
2023/12/14 01:01:02;;;;;;;1.13;1.13;;;;;;;6.46;100.00;99022.47;5091461;28;20209;-77
2023/12/14 01:03:29;;;;;;;1.23;1.23;;;;;;;5.94;100.00;98928.22;5091577;28;20210;-77
2023/12/14 01:05:56;;;;;;;2.10;2.00;;;;;;;6.52;100.00;99015.69;5091179;28;20202;-77
2023/12/14 01:08:23;;;;;;;0.80;0.80;;;;;;;6.55;100.00;99008.00;5058089;28;20199;-77
2023/12/14 01:10:49;;;;;;;1.20;1.20;;;;;;;6.48;100.00;99000.19;5090619;28;20197;-77
2023/12/14 01:13:16;;;;;;;1.53;1.53;;;;;;;6.46;100.00;98999.28;5072469;28;20194;-77
2023/12/14 01:15:44;;;;;;;1.53;1.33;;;;;;;6.35;100.00;98998.28;5059754;28;20209;-76
2023/12/14 01:18:12;;;;;;;1.40;1.40;;;;;;;6.10;100.00;98954.19;5091200;28;20233;-77
2023/12/14 01:20:39;;;;;;;3.67;3.33;;;;;;;6.31;100.00;98975.91;5072256;28;20288;-78
2023/12/14 01:23:05;;;;;;;10.70;3.87;;;;;;;6.27;100.00;98997.34;5093325;28;20212;-78
2023/12/14 01:25:32;;;;;;;6.33;4.37;;;;;;;6.24;100.00;98992.09;5099041;28;20197;-77
2023/12/14 01:28:00;;;;;;;1.13;1.00;;;;;;;6.36;100.00;98994.00;5100283;28;20208;-77
2023/12/14 01:30:26;;;;;;;2.17;2.07;;;;;;;6.36;100.00;98994.00;5111180;28;20217;-78
2023/12/14 01:32:54;;;;;;;1.23;1.23;;;;;;;6.43;100.00;99000.97;5096457;28;20684;-78
2023/12/14 01:35:22;;;;;;;0.80;0.80;;;;;;;6.35;100.00;98995.72;5111554;28;20208;-78
2023/12/14 01:37:49;;;;;;;3.00;2.80;;;;;;;6.18;100.00;98963.72;5093597;28;20218;-77
2023/12/14 01:40:19;;;;;;;4.30;2.27;;;;;;;6.32;100.00;98967.34;5090694;28;20186;-77
2023/12/14 01:42:46;;;;;;;1.33;1.33;;;;;;;6.38;100.00;98985.47;5090637;28;20207;-77
2023/12/14 01:45:15;;;;;;;4.23;2.27;;;;;;;6.29;100.00;98977.63;5072283;28;20190;-77
2023/12/14 01:47:42;;;;;;;1.50;1.47;;;;;;;6.24;100.00;98979.25;5090716;28;20202;-77
2023/12/14 01:50:10;;;;;;;5.30;1.63;;;;;;;6.31;100.00;98975.06;5090697;28;20202;-77
2023/12/14 01:52:37;;;;;;;1.63;1.30;;;;;;;6.23;100.00;98951.81;5091913;28;20198;-77
2023/12/14 01:55:04;;;;;;;0.80;0.80;;;;;;;6.32;100.00;98976.78;5080452;28;20199;-77
2023/12/14 01:57:31;;;;;;;1.30;1.30;;;;;;;6.04;100.00;98931.78;5084183;28;20218;-77
2023/12/14 01:59:58;;;;;;;2.00;1.90;;;;;;;6.26;100.00;98975.00;5090723;28;20198;-77
2023/12/14 02:02:25;;;;;;;1.33;1.30;;;;;;;6.35;100.00;98972.53;5088930;28;20626;-77
2023/12/14 02:04:52;;;;;;;2.10;2.00;;;;;;;6.25;100.00;98970.69;5090366;28;20205;-77
2023/12/14 02:07:20;;;;;;;7.80;2.97;;;;;;;6.31;100.00;98975.06;5090419;28;20202;-77
2023/12/14 02:09:47;;;;;;;3.70;1.67;;;;;;;6.17;100.00;98979.16;5072017;28;20249;-77
2023/12/14 02:12:14;;;;;;;2.07;1.13;;;;;;;6.19;100.00;98975.75;5093809;28;20200;-75
2023/12/14 02:14:40;;;;;;;2.20;1.70;;;;;;;6.20;100.00;98968.91;5110931;28;20197;-77
2023/12/14 02:17:07;;;;;;;1.53;1.43;;;;;;;6.24;100.00;98966.38;5072882;28;20226;-77
2023/12/14 02:19:34;;;;;;;1.73;1.40;;;;;;;6.15;100.00;98955.97;5076862;28;20209;-77
2023/12/14 02:22:01;;;;;;;1.40;1.40;;;;;;;6.13;100.00;98980.81;5093992;28;20209;-77
2023/12/14 02:24:29;;;;;;;0.97;0.97;;;;;;;6.07;100.00;98974.69;5100634;28;20290;-78
2023/12/14 02:26:56;;;;;;;9.10;1.67;;;;;;;5.95;100.00;98971.13;5094131;28;20209;-78
2023/12/14 02:29:23;;;;;;;7.30;2.27;;;;;;;5.91;100.00;98971.03;5094212;28;20202;-77
2023/12/14 02:31:49;;;;;;;1.10;1.10;;;;;;;5.80;100.00;98977.69;5094007;28;20761;-77
2023/12/14 02:34:16;;;;;;;2.13;2.03;;;;;;;5.02;100.00;98918.97;5093920;28;20569;-79
2023/12/14 02:36:43;;;;;;;1.43;1.40;;;;;;;5.34;100.00;98984.63;5094147;28;20205;-77
2023/12/14 02:39:10;;;;;;;2.73;2.53;;;;;;;5.43;100.00;98984.78;5059121;28;20202;-77
2023/12/14 02:41:38;;;;;;;1.23;1.23;;;;;;;5.43;100.00;98974.50;5089739;28;20252;-77
2023/12/14 02:44:05;;;;;;;1.37;1.37;;;;;;;5.46;100.00;98984.81;5094072;28;20200;-77
2023/12/14 02:46:32;;;;;;;1.10;1.10;;;;;;;5.31;100.00;98976.88;5093891;28;20225;-77
2023/12/14 02:48:58;;;;;;;0.87;0.87;;;;;;;5.41;100.00;98989.03;5094440;28;20267;-77
2023/12/14 02:51:25;;;;;;;1.60;1.60;;;;;;;5.46;100.00;98981.38;5093396;28;20201;-78
2023/12/14 02:53:52;;;;;;;0.80;0.80;;;;;;;5.50;100.00;98993.47;5093239;28;20198;-77
2023/12/14 02:56:19;;;;;;;1.13;1.13;;;;;;;5.50;100.00;98983.19;5067382;28;20222;-77
2023/12/14 02:58:51;;;;;;;1.50;1.50;;;;;;;5.45;100.00;98977.09;5099703;28;20228;-77
2023/12/14 03:01:20;;;;;;;1.13;1.13;;;;;;;5.54;100.00;98989.22;5113302;28;20276;-75
2023/12/14 03:03:47;;;;;;;1.80;1.70;;;;;;;5.54;100.00;98981.53;5093223;28;20228;-78
2023/12/14 03:06:13;;;;;;;2.23;2.07;;;;;;;5.44;100.00;98962.53;5093356;28;20244;-77
2023/12/14 03:08:40;;;;;;;1.57;1.47;;;;;;;5.52;100.00;98978.94;5093368;28;20682;-77
2023/12/14 03:11:07;;;;;;;1.23;1.23;;;;;;;5.56;100.00;98991.00;5037951;28;20199;-78
2023/12/14 03:13:34;;;;;;;1.10;1.10;;;;;;;5.58;100.00;98975.59;5091483;28;20206;-78
2023/12/14 03:16:02;;;;;;;1.17;1.17;;;;;;;5.55;100.00;98952.41;5095708;28;20216;-78
2023/12/14 03:18:28;;;;;;;2.60;2.40;;;;;;;5.55;100.00;98962.69;5096247;28;20236;-77
2023/12/14 03:20:55;;;;;;;1.93;1.83;;;;;;;5.37;100.00;98935.84;5090964;28;20198;-78
2023/12/14 03:23:22;;;;;;;1.77;1.67;;;;;;;5.42;100.00;98952.19;5065526;28;20194;-77
2023/12/14 03:25:49;;;;;;;0.97;0.97;;;;;;;5.52;100.00;98972.94;5093259;28;20193;-77
2023/12/14 03:28:15;;;;;;;7.87;1.70;;;;;;;5.46;100.00;98971.09;5090296;28;20697;-77
2023/12/14 03:30:42;;;;;;;0.90;0.90;;;;;;;5.57;100.00;98977.28;5092893;28;20202;-77
2023/12/14 03:33:10;;;;;;;1.20;1.20;;;;;;;5.60;100.00;98968.78;5092971;28;20234;-77
2023/12/14 03:35:37;;;;;;;1.10;1.10;;;;;;;5.49;100.00;98958.34;5063771;28;20213;-78
2023/12/14 03:38:04;;;;;;;0.93;0.93;;;;;;;5.56;100.00;98944.75;5092629;28;20794;-78
2023/12/14 03:40:31;;;;;;;1.30;1.30;;;;;;;5.68;100.00;98959.47;5049049;28;20194;-78
2023/12/14 03:42:57;;;;;;;1.30;1.30;;;;;;;5.45;100.00;98923.13;5092193;28;20202;-78
2023/12/14 03:45:24;;;;;;;1.40;1.40;;;;;;;5.82;100.00;98963.13;5073610;28;20673;-79
2023/12/14 03:47:51;;;;;;;1.53;1.40;;;;;;;5.88;100.00;98960.72;5043058;28;20194;-78
2023/12/14 03:50:19;;;;;;;3.40;1.63;;;;;;;5.97;100.00;98959.13;5072629;28;20330;-79
2023/12/14 03:52:46;;;;;;;2.13;2.00;;;;;;;6.00;100.00;98945.44;5081892;28;20202;-78
2023/12/14 03:55:14;;;;;;;5.10;1.87;;;;;;;5.61;100.00;98885.66;5092512;28;20670;-78
2023/12/14 03:57:41;;;;;;;2.70;1.53;;;;;;;6.05;100.00;98946.38;5092591;28;20291;-78
2023/12/14 04:00:12;;;;;;;0.87;0.87;;;;;;;6.74;100.00;98956.72;5092768;28;20186;-79
2023/12/14 04:02:39;;;;;;;3.97;2.10;;;;;;;6.59;100.00;98945.41;5092602;28;20198;-79
2023/12/14 04:05:07;;;;;;;1.33;1.23;;;;;;;6.63;100.00;98952.31;5092390;28;20201;-79
2023/12/14 04:07:35;;;;;;;2.00;1.03;;;;;;;6.63;100.00;98962.63;5092163;28;20213;-79
2023/12/14 04:10:02;;;;;;;1.07;1.07;;;;;;;6.59;100.00;98955.69;5092319;28;20662;-79
2023/12/14 04:12:29;;;;;;;1.30;1.30;;;;;;;6.40;100.00;98934.00;5092279;28;20202;-78
2023/12/14 04:14:56;;;;;;;2.03;1.93;;;;;;;6.40;100.00;98929.72;5092405;28;20210;-77
2023/12/14 04:17:23;;;;;;;1.63;1.53;;;;;;;6.54;100.00;98958.22;5092575;28;20201;-77
2023/12/14 04:19:49;;;;;;;2.50;1.83;;;;;;;6.54;100.00;98967.63;5091229;28;20230;-77
2023/12/14 04:22:16;;;;;;;1.77;1.67;;;;;;;6.43;100.00;98962.34;5088238;28;20666;-79
2023/12/14 04:24:44;;;;;;;1.37;1.37;;;;;;;6.40;100.00;98965.75;5092679;28;20209;-78
2023/12/14 04:27:11;;;;;;;4.93;3.33;;;;;;;6.27;100.00;98965.56;5091516;28;20209;-77
2023/12/14 04:29:38;;;;;;;1.17;1.17;;;;;;;6.08;100.00;98959.28;5091800;28;20213;-77
2023/12/14 04:32:05;;;;;;;0.90;0.90;;;;;;;6.09;100.00;98962.72;5091448;28;20236;-77
2023/12/14 04:34:32;;;;;;;1.40;1.40;;;;;;;6.06;100.00;98948.13;5091821;28;20202;-77
2023/12/14 04:36:59;;;;;;;1.20;1.15;;;;;;;7.02;100.00;98939.03;5090707;28;20439;-77
2023/12/14 04:39:26;;;;;;;2.57;2.37;;;;;;;6.95;100.00;98933.81;5091464;28;20218;-77
2023/12/14 04:41:54;;;;;;;1.30;1.30;;;;;;;6.56;100.00;98893.88;5085861;28;20202;-77
2023/12/14 04:44:21;;;;;;;1.30;1.30;;;;;;;6.71;100.00;98955.84;5090958;28;20570;-76
2023/12/14 04:46:48;;;;;;;3.00;2.77;;;;;;;6.29;100.00;98923.56;5091429;28;20301;-76
2023/12/14 04:49:15;;;;;;;4.53;2.73;;;;;;;6.37;100.00;98950.28;5031859;28;20255;-77
2023/12/14 04:51:42;;;;;;;1.03;1.03;;;;;;;6.23;100.00;98941.50;5070564;28;20198;-78
2023/12/14 04:54:09;;;;;;;2.00;1.90;;;;;;;6.31;100.00;98957.06;5088432;28;20233;-77
2023/12/14 04:56:36;;;;;;;1.47;1.47;;;;;;;6.26;100.00;98959.56;5091305;28;20209;-77
2023/12/14 04:59:04;;;;;;;1.93;1.73;;;;;;;6.23;100.00;98954.38;5091018;28;20701;-77
2023/12/14 05:01:31;;;;;;;2.93;2.70;;;;;;;6.20;100.00;98945.75;5091339;28;20198;-76
2023/12/14 05:03:57;;;;;;;3.20;2.33;;;;;;;6.19;100.00;98946.56;5090847;28;20209;-76
2023/12/14 05:06:24;;;;;;;1.27;1.27;;;;;;;5.60;100.00;98855.69;5091126;28;20199;-77
2023/12/14 05:08:51;;;;;;;2.37;2.17;;;;;;;5.98;100.00;98935.16;5090994;28;20246;-77
2023/12/14 05:11:18;;;;;;;1.60;1.60;;;;;;;5.84;100.00;98944.34;5091047;28;20194;-78
2023/12/14 05:13:45;;;;;;;1.23;1.00;;;;;;;5.53;100.00;98928.41;5061198;28;20197;-77
2023/12/14 05:16:15;;;;;;;1.67;1.67;;;;;;;5.67;100.00;98947.47;5111543;28;20756;-77
2023/12/14 05:18:42;;;;;;;5.77;1.87;;;;;;;5.38;100.00;98929.88;5098814;28;20610;-77
2023/12/14 05:21:09;;;;;;;1.23;1.23;;;;;;;5.40;100.00;98956.47;5092207;28;20198;-76
2023/12/14 05:23:36;;;;;;;1.07;1.07;;;;;;;5.35;100.00;98945.22;5103824;28;20325;-77
2023/12/14 05:26:02;;;;;;;1.43;1.40;;;;;;;5.26;100.00;98957.91;5111208;28;20197;-77
2023/12/14 05:28:29;;;;;;;1.00;1.00;;;;;;;5.24;100.00;98957.03;5101189;28;20583;-77
2023/12/14 05:30:56;;;;;;;1.10;1.10;;;;;;;5.16;100.00;98943.19;5088941;28;20574;-77
2023/12/14 05:33:24;;;;;;;1.93;1.83;;;;;;;5.23;100.00;98965.59;5090360;28;20725;-78
2023/12/14 05:35:51;;;;;;;4.37;2.30;;;;;;;4.76;100.00;98985.22;5090821;28;20224;-76
2023/12/14 05:38:17;;;;;;;0.80;0.80;;;;;;;4.37;100.00;99010.91;5090314;28;20226;-77
2023/12/14 05:40:44;;;;;;;2.13;2.03;;;;;;;4.26;100.00;99025.19;5090529;28;20198;-76
2023/12/14 05:43:11;;;;;;;2.80;2.70;;;;;;;4.12;100.00;99026.56;5090409;28;20194;-77
2023/12/14 05:45:38;;;;;;;4.63;2.50;;;;;;;4.21;100.00;99061.84;5090694;28;20587;-79
2023/12/14 05:48:06;;;;;;;0.90;0.90;;;;;;;3.99;100.00;99050.22;5090703;28;20622;-75
2023/12/14 05:50:34;;;;;;;1.40;1.40;;;;;;;4.16;100.00;99028.38;5090834;28;20246;-77
2023/12/14 05:53:01;;;;;;;1.00;1.00;;;;;;;4.28;100.00;99040.63;5093547;28;20201;-76
2023/12/14 05:55:27;;;;;;;3.13;2.97;;;;;;;4.23;100.00;99032.81;5095228;28;20202;-79
2023/12/14 05:57:54;;;;;;;1.23;1.23;;;;;;;4.17;100.00;99037.81;5098252;28;20198;-79
2023/12/14 06:00:21;;;;;;;1.00;1.00;;;;;;;4.14;100.00;99008.69;5095005;28;20288;-80
2023/12/14 06:02:48;;;;;;;3.20;2.60;;;;;;;4.21;100.00;99043.91;5094724;28;20626;-79
2023/12/14 06:05:15;;;;;;;2.40;2.30;;;;;;;4.07;100.00;99028.16;5096192;28;20201;-78
2023/12/14 06:07:43;;;;;;;0.93;0.93;;;;;;;4.25;100.00;99077.31;5095277;28;20201;-78
2023/12/14 06:10:11;;;;;;;1.43;1.43;;;;;;;4.22;100.00;99066.13;5094732;28;20232;-79
2023/12/14 06:12:37;;;;;;;2.63;2.23;;;;;;;4.26;100.00;99073.06;5092903;28;20213;-79
2023/12/14 06:15:05;;;;;;;2.30;2.20;;;;;;;4.13;100.00;99059.09;5095726;28;20209;-79
2023/12/14 06:17:33;;;;;;;6.00;2.20;;;;;;;4.37;100.00;99085.31;5093428;28;20193;-80
2023/12/14 06:20:00;;;;;;;1.30;1.30;;;;;;;4.43;100.00;99100.84;5045122;28;20223;-80
2023/12/14 06:22:27;;;;;;;8.77;3.90;;;;;;;4.40;100.00;99075.13;5088769;28;20202;-79
2023/12/14 06:24:55;;;;;;;2.60;2.50;;;;;;;4.66;100.00;99113.34;5091779;28;20199;-75
2023/12/14 06:27:26;;;;;;;3.43;3.23;;;;;;;4.30;100.00;99121.94;5095593;28;20584;-74
2023/12/14 06:29:52;;;;;;;1.97;1.97;;;;;;;4.34;100.00;99134.00;5089646;28;20198;-74
2023/12/14 06:32:19;;;;;;;4.10;2.13;;;;;;;4.33;100.00;99141.66;5100985;28;20221;-75
2023/12/14 06:34:46;;;;;;;3.23;3.03;;;;;;;4.15;100.00;99157.44;5098341;28;20207;-76
2023/12/14 06:37:13;;;;;;;1.47;1.07;;;;;;;4.15;100.00;99154.03;5094148;28;20202;-75
2023/12/14 06:39:41;;;;;;;1.90;1.73;;;;;;;4.18;100.00;99139.56;5087503;28;20649;-77
2023/12/14 06:42:09;;;;;;;2.23;2.03;;;;;;;4.28;100.00;99166.34;5047783;28;20650;-77
2023/12/14 06:44:36;;;;;;;1.37;1.37;;;;;;;4.05;100.00;99158.06;5092052;28;20206;-80
2023/12/14 06:47:03;;;;;;;2.30;2.07;;;;;;;3.99;100.00;99173.28;5094081;28;20206;-78
2023/12/14 06:49:30;;;;;;;2.50;2.37;;;;;;;3.98;100.00;99156.16;5094418;28;20206;-78
2023/12/14 06:51:57;;;;;;;2.80;2.70;;;;;;;4.06;100.00;99184.56;5106032;28;20202;-79
2023/12/14 06:54:24;;;;;;;2.50;2.40;;;;;;;4.04;100.00;99181.94;5106212;28;20225;-78
2023/12/14 06:56:51;;;;;;;1.67;1.53;;;;;;;4.08;100.00;99153.00;5098999;28;20206;-78
2023/12/14 06:59:19;;;;;;;1.00;1.00;;;;;;;4.37;100.00;99166.56;5096715;28;20240;-79
2023/12/14 07:01:46;;;;;;;2.40;2.30;;;;;;;4.38;100.00;99150.34;5075545;28;20195;-77
2023/12/14 07:04:13;;;;;;;3.47;3.17;;;;;;;4.65;100.00;99179.22;5083036;28;20705;-79
2023/12/14 07:06:40;;;;;;;1.37;1.33;;;;;;;4.79;100.00;99170.13;5094024;28;20202;-78
2023/12/14 07:09:07;;;;;;;2.60;2.50;;;;;;;4.91;100.00;99162.72;5085810;28;20202;-76
2023/12/14 07:11:34;;;;;;;1.17;1.17;;;;;;;5.08;100.00;99145.09;5074076;28;20211;-76
2023/12/14 07:14:00;;;;;;;3.67;1.67;;;;;;;5.23;100.00;99145.44;5081027;28;20205;-78
2023/12/14 07:16:28;;;;;;;1.50;1.50;;;;;;;5.53;100.00;99158.03;5093468;28;20209;-76
2023/12/14 07:18:55;;;;;;;1.00;1.00;;;;;;;5.60;100.00;99151.31;5093171;28;20222;-76
2023/12/14 07:21:22;;;;;;;0.87;0.87;;;;;;;5.93;100.00;99149.41;5093747;28;20265;-76
2023/12/14 07:23:49;;;;;;;0.93;0.93;;;;;;;6.05;100.00;99147.06;5092634;28;20278;-76
2023/12/14 07:26:16;;;;;;;1.10;1.07;;;;;;;6.23;100.00;99164.53;5093187;28;20198;-76
2023/12/14 07:28:42;;;;;;;1.10;1.10;;;;;;;5.90;100.00;99133.91;5092730;28;20213;-74
2023/12/14 07:31:09;;;;;;;2.10;2.00;;;;;;;5.88;100.00;99135.63;5092770;28;20198;-75
2023/12/14 07:33:37;;;;;;;2.17;2.07;;;;;;;6.29;100.00;99142.34;5092780;28;20327;-75
2023/12/14 07:36:05;;;;;;;1.20;1.20;;;;;;;6.36;100.00;99144.16;5078494;28;20599;-75
2023/12/14 07:38:32;;;;;;;1.00;1.00;;;;;;;6.53;100.00;99167.59;5092867;28;20198;-76
2023/12/14 07:40:59;;;;;;;1.17;1.17;;;;;;;6.63;100.00;99173.78;5089420;28;20199;-76
2023/12/14 07:43:25;;;;;;;1.73;1.63;;;;;;;6.28;100.00;99114.84;5081993;28;20202;-75
2023/12/14 07:45:52;;;;;;;2.17;2.07;;;;;;;6.74;100.00;99179.97;5090680;28;20575;-76
2023/12/14 07:48:19;;;;;;;0.90;0.90;;;;;;;6.82;100.00;99197.28;5080596;28;20227;-74
2023/12/14 07:50:48;;;;;;;1.13;1.13;;;;;;;6.86;100.00;99231.69;5092674;28;20291;-76
2023/12/14 07:53:15;;;;;;;4.73;3.40;;;;;;;6.77;100.00;99228.97;5078955;28;20205;-75
2023/12/14 07:55:41;;;;;;;3.73;3.50;;;;;;;7.03;100.00;99237.13;5092604;28;20198;-81
2023/12/14 07:58:08;;;;;;;1.43;1.43;;;;;;;6.90;100.00;99236.03;5068871;28;20213;-76
2023/12/14 08:00:35;;;;;;;0.67;0.67;;;;;;;6.98;100.00;99235.31;5045019;28;20219;-76
2023/12/14 08:03:02;;;;;;;2.40;2.30;;;;;;;7.07;100.00;99207.94;5089404;28;20194;-73
2023/12/14 08:05:28;;;;;;;0.93;0.93;;;;;;;7.43;100.00;99224.81;5092599;28;20198;-75
2023/12/14 08:07:57;;;;;;;2.27;2.17;;;;;;;7.15;100.00;99224.38;5092074;28;20198;-75
2023/12/14 08:10:23;;;;;;;3.10;2.90;;;;;;;6.90;100.00;99236.03;5092904;28;20202;-78
2023/12/14 08:12:51;;;;;;;3.40;1.60;;;;;;;6.88;100.00;99237.75;5092906;28;20674;-77
2023/12/14 08:15:18;;;;;;;3.60;3.33;;;;;;;7.10;100.00;99226.06;5088298;28;20202;-79
2023/12/14 08:17:45;;;;;;;1.40;1.40;;;;;;;7.22;100.00;99241.69;5092826;28;20208;-79
2023/12/14 08:20:13;;;;;;;3.83;2.60;;;;;;;7.16;100.00;99251.91;5088242;28;20622;-77
2023/12/14 08:22:44;;;;;;;8.57;3.90;;;;;;;7.11;100.00;99256.13;5092322;28;20198;-78
2023/12/14 08:25:14;;;;;;;1.43;1.43;;;;;;;6.94;100.00;99248.13;5078471;28;20225;-78
2023/12/14 08:27:41;;;;;;;3.13;2.47;;;;;;;6.84;100.00;99277.16;5092279;28;20260;-78
2023/12/14 08:30:09;;;;;;;1.47;1.47;;;;;;;6.84;100.00;99261.72;5092013;28;20696;-78
2023/12/14 08:32:35;;;;;;;1.27;1.27;;;;;;;6.76;100.00;99263.28;5091996;28;20276;-78
2023/12/14 08:35:02;;;;;;;1.60;1.60;;;;;;;6.66;100.00;99272.56;5092239;28;20241;-81
2023/12/14 08:37:29;;;;;;;5.07;4.73;;;;;;;6.73;100.00;99268.38;5091746;28;20205;-80
2023/12/14 08:39:56;;;;;;;4.63;4.30;;;;;;;6.63;100.00;99253.63;5091988;28;20240;-78
2023/12/14 08:42:24;;;;;;;3.00;2.80;;;;;;;6.76;100.00;99274.47;5091539;28;20301;-79
2023/12/14 08:44:51;;;;;;;1.73;1.67;;;;;;;7.01;100.00;99291.19;5091852;28;20197;-79
2023/12/14 08:47:18;;;;;;;4.37;3.17;;;;;;;7.03;100.00;99288.66;5091934;28;20693;-77
2023/12/14 08:49:44;;;;;;;2.10;2.00;;;;;;;7.08;100.00;99277.56;5091485;28;20194;-78
2023/12/14 08:52:11;;;;;;;9.33;3.87;;;;;;;7.25;100.00;99285.53;5091641;28;20201;-79
2023/12/14 08:54:38;;;;;;;1.37;1.27;;;;;;;7.38;100.00;99288.31;5091425;28;20202;-78
2023/12/14 08:57:05;;;;;;;2.17;1.47;;;;;;;7.31;100.00;99281.34;5091798;28;20245;-77
2023/12/14 08:59:33;;;;;;;1.87;1.87;;;;;;;7.53;100.00;99302.31;5091499;28;20611;-77
2023/12/14 09:02:00;;;;;;;5.10;2.40;;;;;;;7.73;100.00;99295.72;5092252;28;20202;-77
2023/12/14 09:04:26;;;;;;;1.67;1.67;;;;;;;7.72;100.00;99292.25;5091769;28;20194;-78
2023/12/14 09:06:53;;;;;;;1.97;1.87;;;;;;;7.74;100.00;99297.47;5091793;28;20209;-78
2023/12/14 09:09:20;;;;;;;0.90;0.90;;;;;;;7.89;100.00;99280.44;5091632;28;20292;-78
2023/12/14 09:11:47;;;;;;;0.70;0.70;;;;;;;7.71;100.00;99312.88;5091686;28;20202;-78
2023/12/14 09:14:14;;;;;;;1.03;1.03;;;;;;;7.35;100.00;99298.59;5091583;28;20205;-78
2023/12/14 09:16:42;;;;;;;2.07;1.97;;;;;;;6.68;100.00;99210.78;5091428;28;20201;-78
2023/12/14 09:19:09;;;;;;;6.13;2.90;;;;;;;7.31;100.00;99272.78;5072212;28;20209;-77
2023/12/14 09:21:36;;;;;;;1.83;1.80;;;;;;;7.49;100.00;99315.16;5091038;28;21348;-78
2023/12/14 09:24:03;;;;;;;0.97;0.97;;;;;;;7.69;100.00;99312.00;5091205;28;20217;-78
2023/12/14 09:26:29;;;;;;;0.93;0.93;;;;;;;7.79;100.00;99291.50;5090893;28;20194;-78
2023/12/14 09:28:56;;;;;;;1.77;1.73;;;;;;;7.57;100.00;99284.31;5072130;28;20263;-77
2023/12/14 09:31:23;;;;;;;5.73;1.77;;;;;;;7.66;100.00;99315.41;5091483;28;20670;-79
2023/12/14 09:33:52;;;;;;;7.57;3.53;;;;;;;7.83;100.00;99302.72;5091273;28;20246;-79
2023/12/14 09:36:18;;;;;;;1.13;1.13;;;;;;;7.79;100.00;99282.88;5072254;28;20259;-79
2023/12/14 09:38:45;;;;;;;0.93;0.93;;;;;;;7.92;100.00;99289.94;5072791;28;20646;-78
2023/12/14 09:41:12;;;;;;;1.37;1.37;;;;;;;7.84;100.00;99309.63;5089436;28;20218;-78
2023/12/14 09:43:39;;;;;;;1.37;1.37;;;;;;;7.95;100.00;99314.06;5086643;28;20650;-78
2023/12/14 09:46:06;;;;;;;3.17;1.50;;;;;;;8.18;100.00;99314.38;5090721;28;20644;-77
2023/12/14 09:48:34;;;;;;;2.17;2.07;;;;;;;8.08;100.00;99263.47;5055375;28;20313;-78
2023/12/14 09:51:02;;;;;;;1.40;1.37;;;;;;;8.60;100.00;99301.09;5075167;28;20235;-78
2023/12/14 09:53:29;;;;;;;0.90;0.90;;;;;;;8.24;100.00;99264.53;5070553;28;20202;-77
2023/12/14 09:55:55;;;;;;;4.20;3.40;;;;;;;8.52;100.00;99317.38;5072050;28;20206;-77
2023/12/14 09:58:22;;;;;;;1.07;1.07;;;;;;;8.13;100.00;99251.50;5091083;28;20251;-76
2023/12/14 10:00:49;;;;;;;3.50;3.20;;;;;;;8.64;100.00;99304.56;5095071;28;20236;-78
2023/12/14 10:03:22;;;;;;;0.80;0.80;;;;;;;8.98;100.00;99324.72;5103048;28;20198;-78
2023/12/14 10:05:49;;;;;;;8.13;1.90;;;;;;;8.94;100.00;99292.81;5101330;28;20194;-78
2023/12/14 10:08:18;;;;;;;1.63;1.53;;;;;;;9.37;100.00;99343.16;5083985;28;20193;-77
2023/12/14 10:10:45;;;;;;;2.00;1.90;;;;;;;9.25;100.00;99319.78;5089792;28;20206;-77
2023/12/14 10:13:12;;;;;;;2.47;2.17;;;;;;;9.31;100.00;99319.81;5087921;28;20198;-78
2023/12/14 10:15:43;;;;;;;2.03;1.87;;;;;;;9.62;100.00;99356.28;5109728;28;20289;-77
2023/12/14 10:18:10;;;;;;;6.00;3.03;;;;;;;9.71;100.00;99333.91;5105711;28;20198;-77
2023/12/14 10:20:37;;;;;;;1.70;1.60;;;;;;;9.63;100.00;99358.03;5097662;28;20303;-78
2023/12/14 10:23:06;;;;;;;3.20;3.00;;;;;;;9.54;100.00;99351.03;5094756;28;20198;-77
2023/12/14 10:25:34;;;;;;;1.17;1.17;;;;;;;9.54;100.00;99345.00;5092510;28;20194;-78
2023/12/14 10:28:02;;;;;;;1.20;1.20;;;;;;;9.48;100.00;99324.28;5093056;28;20218;-79
2023/12/14 10:30:30;;;;;;;1.27;1.27;;;;;;;9.60;100.00;99301.03;5077262;28;20191;-80
2023/12/14 10:32:57;;;;;;;1.70;1.60;;;;;;;9.76;100.00;99341.72;5091094;28;20230;-76
2023/12/14 10:35:24;;;;;;;2.20;2.00;;;;;;;9.81;100.00;99352.97;5096279;28;20203;-78
2023/12/14 10:37:52;;;;;;;1.73;1.73;;;;;;;10.03;100.00;99348.75;5086707;28;20203;-78
2023/12/14 10:40:20;;;;;;;2.60;2.40;;;;;;;10.07;100.00;99360.88;5076799;28;20230;-79
2023/12/14 10:42:50;;;;;;;3.57;3.17;;;;;;;9.88;100.00;99319.34;5063024;28;20208;-81
2023/12/14 10:45:18;;;;;;;1.70;1.60;;;;;;;9.88;100.00;99344.38;5094692;28;20287;-77
2023/12/14 10:47:45;;;;;;;3.10;2.80;;;;;;;10.03;100.00;99359.97;5081750;28;20671;-82
2023/12/14 10:50:13;;;;;;;1.13;1.13;;;;;;;10.08;100.00;99347.94;5098117;28;20217;-82
2023/12/14 10:52:41;;;;;;;1.33;1.33;;;;;;;10.15;100.00;99349.72;5092962;28;20320;-73
2023/12/14 10:55:11;;;;;;;1.10;1.10;;;;;;;10.26;100.00;99354.97;5067055;28;20198;-79
2023/12/14 10:57:39;;;;;;;0.97;0.97;;;;;;;10.25;100.00;99345.44;5080736;28;20210;-79
2023/12/14 11:00:09;;;;;;;1.10;1.10;;;;;;;10.21;100.00;99323.84;5084728;28;21607;-79
2023/12/14 11:02:42;;;;;;;10.20;2.50;;;;;;;10.44;100.00;99357.63;5096386;28;20233;-79
2023/12/14 11:05:15;;;;;;;1.23;1.20;;;;;;;10.44;100.00;99358.50;5097500;28;20676;-79
2023/12/14 11:07:50;;;;;;;1.90;1.80;;;;;;;10.01;100.00;99278.84;5097034;28;20216;-79
2023/12/14 11:10:23;;;;;;;2.00;1.57;;;;;;;10.44;100.00;99345.53;5068998;28;20202;-78
2023/12/14 11:12:58;;;;;;;0.70;0.70;;;;;;;10.37;100.00;99336.03;5099627;28;20210;-79
2023/12/14 11:15:27;;;;;;;1.57;1.47;;;;;;;10.36;100.00;99339.47;5094799;28;20221;-83
2023/12/14 11:18:27;;;;;;;1.10;1.10;;;;;;;10.37;100.00;99367.13;5094835;28;20285;-82
2023/12/14 11:21:00;;;;;;;3.27;3.17;;;;;;;10.38;100.00;99371.41;5013332;28;20751;-83
2023/12/14 11:23:35;;;;;;;1.10;1.10;;;;;;;10.41;100.00;99363.69;4995758;28;20292;-80
2023/12/14 11:26:04;;;;;;;2.20;2.07;;;;;;;10.41;100.00;99374.03;5003074;28;20636;-82
2023/12/14 11:28:32;;;;;;;1.10;1.10;;;;;;;10.32;100.00;99373.13;5011115;28;20597;-82
2023/12/14 11:31:01;;;;;;;1.17;1.17;;;;;;;10.45;100.00;99380.94;5011434;28;20208;-82
2023/12/14 11:33:28;;;;;;;1.00;1.00;;;;;;;10.42;100.00;99383.53;5010353;28;20232;-82